Time;durP1;ratioP1;P1;durP2;ratioP2;P2;SDS_P1;SDS_P2;PMS_P1;PMS_P2;Temp;Humidity;BMP_temperature;BMP_pressure;BME280_temperature;BME280_humidity;BME280_pressure;Samples;Min_cycle;Max_cycle;Signal;HPM_P1;HPM_P2
2022/04/05 00:00:36;;;;;;;8.05;5.35;;;6.00;99.90;;;;;;5093906;28;20064;-58
2022/04/05 00:03:02;;;;;;;7.88;5.65;;;6.10;99.90;;;;;;5093497;28;20035;-58
2022/04/05 00:05:27;;;;;;;10.75;6.18;;;5.90;99.90;;;;;;5094037;28;20387;-58
2022/04/05 00:07:54;;;;;;;11.43;6.57;;;5.90;99.90;;;;;;5095659;28;20024;-58
2022/04/05 00:10:21;;;;;;;10.05;6.18;;;5.90;99.90;;;;;;5098162;28;20024;-58
2022/04/05 00:12:46;;;;;;;10.40;6.40;;;5.90;99.90;;;;;;5097976;28;20028;-58
2022/04/05 00:15:12;;;;;;;9.35;6.32;;;5.90;99.90;;;;;;5097955;28;20027;-58
2022/04/05 00:17:38;;;;;;;7.93;5.65;;;5.90;99.90;;;;;;5097571;28;20528;-58
2022/04/05 00:20:05;;;;;;;9.43;5.82;;;5.90;99.90;;;;;;5097886;28;20024;-58
2022/04/05 00:22:30;;;;;;;8.30;5.72;;;5.90;99.90;;;;;;5097889;28;20464;-58
2022/04/05 00:24:56;;;;;;;8.75;5.50;;;5.90;99.90;;;;;;5097897;28;20039;-58
2022/04/05 00:27:22;;;;;;;8.25;5.40;;;5.90;99.90;;;;;;5097711;28;20089;-58
2022/04/05 00:29:47;;;;;;;7.20;5.30;;;5.90;99.90;;;;;;5097664;28;20095;-58
2022/04/05 00:32:13;;;;;;;7.40;5.63;;;5.80;99.90;;;;;;5097607;28;20108;-60
2022/04/05 00:34:40;;;;;;;8.73;5.60;;;5.70;99.90;;;;;;5097574;28;20064;-58
2022/04/05 00:37:06;;;;;;;9.93;6.32;;;5.50;99.90;;;;;;5097876;28;20036;-58
2022/04/05 00:39:31;;;;;;;11.68;6.95;;;5.40;99.90;;;;;;5097847;28;20099;-59
2022/04/05 00:41:57;;;;;;;8.10;5.85;;;5.30;99.90;;;;;;5097977;28;20056;-59
2022/04/05 00:44:24;;;;;;;9.50;6.28;;;5.20;99.90;;;;;;5097568;28;20038;-58
2022/04/05 00:46:52;;;;;;;14.50;6.50;;;5.30;99.90;;;;;;5097999;28;20085;-60
2022/04/05 00:49:30;;;;;;;8.35;5.63;;;5.30;99.90;;;;;;5096450;28;20357;-58
2022/04/05 00:51:57;;;;;;;8.18;5.18;;;5.30;99.90;;;;;;5097371;28;20024;-59
2022/04/05 00:54:25;;;;;;;8.18;5.65;;;5.30;99.90;;;;;;5095929;28;20032;-58
2022/04/05 00:56:55;;;;;;;14.52;5.88;;;5.30;99.90;;;;;;5096263;28;20407;-59
2022/04/05 00:59:22;;;;;;;8.63;5.88;;;5.30;99.90;;;;;;5097135;28;20032;-58
2022/04/05 01:01:50;;;;;;;10.15;6.38;;;5.20;99.90;;;;;;5096809;28;20027;-59
2022/04/05 01:04:16;;;;;;;10.93;7.55;;;5.10;99.90;;;;;;5096995;28;20032;-59
2022/04/05 01:06:45;;;;;;;10.13;6.43;;;5.00;99.90;;;;;;5097127;28;20106;-59
2022/04/05 01:09:11;;;;;;;;;;;4.90;99.90;;;;;;5097543;28;20078;-59
2022/04/05 01:11:37;;;;;;;9.25;6.20;;;5.00;99.90;;;;;;5096958;28;20261;-59
2022/04/05 01:14:04;;;;;;;13.07;7.22;;;4.90;99.90;;;;;;5096829;28;20032;-59
2022/04/05 01:16:30;;;;;;;11.07;6.75;;;4.80;99.90;;;;;;5096774;28;20039;-59
2022/04/05 01:18:57;;;;;;;10.52;6.88;;;4.80;99.90;;;;;;5095388;28;20044;-59
2022/04/05 01:21:23;;;;;;;11.60;7.53;;;4.70;99.90;;;;;;5095444;28;20028;-59
2022/04/05 01:24:14;;;;;;;10.30;6.43;;;4.70;99.90;;;;;;5096554;28;20078;-59
2022/04/05 01:26:45;;;;;;;8.95;6.22;;;4.60;99.90;;;;;;5096915;28;20032;-59
2022/04/05 01:29:12;;;;;;;12.00;7.22;;;4.60;99.90;;;;;;5096897;28;20058;-60
2022/04/05 01:31:44;;;;;;;11.27;7.00;;;4.60;99.90;;;;;;5095509;28;20435;-60
2022/04/05 01:34:14;;;;;;;13.73;7.05;;;4.50;99.90;;;;;;5096697;28;20059;-60
2022/04/05 01:36:46;;;;;;;10.73;6.80;;;4.50;99.90;;;;;;5096867;28;20025;-60
2022/04/05 01:39:15;;;;;;;11.35;6.72;;;4.50;99.90;;;;;;5095476;28;20024;-59
2022/04/05 01:41:41;;;;;;;11.40;7.60;;;4.60;99.90;;;;;;5096501;28;20111;-59
2022/04/05 01:44:09;;;;;;;15.05;7.63;;;4.70;99.90;;;;;;5096222;28;20111;-59
2022/04/05 01:46:35;;;;;;;13.20;7.38;;;4.70;99.90;;;;;;5095376;28;20035;-59
2022/04/05 01:49:03;;;;;;;10.57;6.60;;;4.80;99.90;;;;;;5096358;28;20032;-59
2022/04/05 01:51:28;;;;;;;10.20;7.13;;;4.80;99.90;;;;;;5096156;28;20069;-59
2022/04/05 01:53:57;;;;;;;8.95;6.03;;;4.80;99.90;;;;;;5096396;28;20032;-59
2022/04/05 01:56:23;;;;;;;9.65;6.88;;;4.90;99.90;;;;;;5096024;28;20452;-59
2022/04/05 01:58:49;;;;;;;10.27;6.25;;;4.90;99.90;;;;;;5095978;28;20039;-59
2022/04/05 02:01:15;;;;;;;10.05;5.72;;;4.90;99.90;;;;;;5094675;28;20028;-59
2022/04/05 02:03:40;;;;;;;8.40;5.75;;;5.00;99.90;;;;;;5095836;28;20036;-59
2022/04/05 02:06:08;;;;;;;10.25;5.65;;;5.10;99.90;;;;;;5094615;28;20031;-59
2022/04/05 02:08:33;;;;;;;8.63;5.60;;;5.10;99.90;;;;;;5095804;28;20078;-59
2022/04/05 02:10:59;;;;;;;10.63;6.43;;;5.10;99.90;;;;;;5094449;28;20522;-59
2022/04/05 02:13:25;;;;;;;7.75;5.07;;;5.20;99.90;;;;;;5094383;28;20114;-59
2022/04/05 02:15:50;;;;;;;8.25;6.03;;;5.20;99.90;;;;;;5095857;28;20077;-59
2022/04/05 02:18:16;;;;;;;10.70;5.82;;;5.30;99.90;;;;;;5095535;28;20101;-59
2022/04/05 02:20:43;;;;;;;9.40;5.93;;;5.30;99.90;;;;;;5095551;28;20020;-59
2022/04/05 02:23:08;;;;;;;8.38;5.10;;;5.40;99.90;;;;;;5095445;28;20028;-59
2022/04/05 02:25:34;;;;;;;10.18;6.00;;;5.50;99.90;;;;;;5095471;28;20054;-59
2022/04/05 02:27:59;;;;;;;7.60;5.25;;;5.50;99.90;;;;;;5094183;28;20074;-59
2022/04/05 02:30:25;;;;;;;9.48;5.28;;;5.50;99.90;;;;;;5094461;28;20028;-59
2022/04/05 02:32:51;;;;;;;8.85;4.82;;;5.50;99.90;;;;;;5095317;28;20032;-59
2022/04/05 02:35:18;;;;;;;7.88;4.75;;;5.50;99.90;;;;;;5095270;28;20093;-59
2022/04/05 02:37:44;;;;;;;7.20;4.70;;;5.50;99.90;;;;;;5095118;28;20504;-59
2022/04/05 02:40:10;;;;;;;10.25;5.22;;;5.60;99.90;;;;;;5095325;28;20056;-60
2022/04/05 02:42:36;;;;;;;8.98;5.13;;;5.60;99.90;;;;;;5094375;28;20159;-59
2022/04/05 02:45:02;;;;;;;8.65;4.95;;;5.70;99.90;;;;;;5093813;28;20074;-59
2022/04/05 02:47:27;;;;;;;9.05;5.10;;;5.80;99.90;;;;;;5095068;28;20081;-59
2022/04/05 02:49:53;;;;;;;7.00;5.13;;;5.80;99.90;;;;;;5095226;28;20056;-59
2022/04/05 02:52:18;;;;;;;8.25;4.78;;;5.80;99.90;;;;;;5094692;28;20024;-59
2022/04/05 02:54:44;;;;;;;7.82;5.18;;;5.80;99.90;;;;;;5093620;28;20483;-59
2022/04/05 02:57:10;;;;;;;6.25;4.72;;;5.80;99.90;;;;;;5095337;28;20056;-59
2022/04/05 02:59:35;;;;;;;7.15;4.68;;;5.90;99.90;;;;;;5094575;28;20036;-59
2022/04/05 03:02:01;;;;;;;6.95;4.50;;;5.90;99.90;;;;;;5094792;28;20031;-59
2022/04/05 03:04:26;;;;;;;6.68;4.63;;;5.90;99.90;;;;;;5093421;28;20036;-59
2022/04/05 03:07:11;;;;;;;5.70;3.95;;;5.90;99.90;;;;;;5094961;28;20055;-59
2022/04/05 03:09:36;;;;;;;5.88;4.80;;;5.90;99.90;;;;;;5094942;28;20028;-59
2022/04/05 03:12:21;;;;;;;7.07;4.80;;;5.90;99.90;;;;;;5094606;28;20456;-59
2022/04/05 03:14:47;;;;;;;7.53;4.55;;;5.90;99.90;;;;;;5095006;28;20106;-59
2022/04/05 03:17:12;;;;;;;6.57;4.28;;;6.00;99.90;;;;;;5094317;28;20056;-59
2022/04/05 03:19:38;;;;;;;6.97;3.92;;;6.00;99.90;;;;;;5093833;28;20030;-59
2022/04/05 03:22:08;;;;;;;7.45;4.88;;;6.00;99.90;;;;;;5094640;28;20024;-59
2022/04/05 03:24:35;;;;;;;7.90;4.32;;;6.10;99.90;;;;;;5094365;28;20032;-59
2022/04/05 03:27:00;;;;;;;6.53;4.00;;;6.10;99.90;;;;;;5094526;28;20028;-59
2022/04/05 03:29:26;;;;;;;6.68;4.60;;;6.10;99.90;;;;;;5094530;28;20103;-59
2022/04/05 03:31:52;;;;;;;6.57;3.97;;;6.10;99.90;;;;;;5092977;28;20024;-59
2022/04/05 03:34:18;;;;;;;7.38;4.47;;;6.20;99.90;;;;;;5094236;28;20024;-59
2022/04/05 03:36:44;;;;;;;4.65;3.55;;;6.20;99.90;;;;;;5094220;28;20039;-59
2022/04/05 03:39:12;;;;;;;6.43;3.88;;;6.30;99.90;;;;;;5094519;28;20024;-58
2022/04/05 03:41:38;;;;;;;6.50;4.15;;;6.30;99.90;;;;;;5092639;28;20024;-59
2022/04/05 03:44:04;;;;;;;6.55;4.28;;;6.30;99.90;;;;;;5093093;28;20028;-59
2022/04/05 03:46:30;;;;;;;5.85;3.70;;;6.30;99.90;;;;;;5093875;28;20035;-59
2022/04/05 03:48:55;;;;;;;7.93;4.13;;;6.40;99.90;;;;;;5092771;28;20031;-59
2022/04/05 03:51:21;;;;;;;7.40;4.05;;;6.40;99.90;;;;;;5093749;28;20024;-59
2022/04/05 03:53:46;;;;;;;4.93;3.60;;;6.40;99.90;;;;;;5093904;28;20107;-59
2022/04/05 03:56:12;;;;;;;7.18;4.20;;;6.40;99.90;;;;;;5094113;28;20531;-58
2022/04/05 03:58:38;;;;;;;5.68;4.03;;;6.50;99.90;;;;;;5094066;28;20043;-59
2022/04/05 04:01:04;;;;;;;6.97;4.35;;;6.50;99.90;;;;;;5092792;28;20020;-58
2022/04/05 04:03:29;;;;;;;5.70;3.92;;;6.50;99.90;;;;;;5094024;28;20028;-59
2022/04/05 04:05:55;;;;;;;4.90;3.70;;;6.60;99.90;;;;;;5093822;28;20028;-59
2022/04/05 04:08:21;;;;;;;7.28;4.20;;;6.60;99.90;;;;;;5092776;28;20031;-58
2022/04/05 04:10:48;;;;;;;8.65;4.25;;;6.60;99.90;;;;;;5092681;28;20376;-59
2022/04/05 04:13:15;;;;;;;6.03;4.15;;;6.60;99.90;;;;;;5094163;28;20028;-59
2022/04/05 04:15:41;;;;;;;6.15;3.97;;;6.60;99.90;;;;;;5093942;28;20107;-59
2022/04/05 04:18:07;;;;;;;5.40;3.90;;;6.50;99.90;;;;;;5093621;28;20066;-59
2022/04/05 04:20:32;;;;;;;6.10;4.22;;;6.50;99.90;;;;;;5093937;28;20028;-59
2022/04/05 04:22:58;;;;;;;5.13;3.75;;;6.50;99.90;;;;;;5092595;28;20032;-59
2022/04/05 04:25:24;;;;;;;5.38;4.10;;;6.50;99.90;;;;;;5092609;28;20066;-59
2022/04/05 04:27:50;;;;;;;6.13;3.78;;;6.50;99.90;;;;;;5093752;28;20036;-59
2022/04/05 04:30:15;;;;;;;4.88;3.97;;;6.60;99.90;;;;;;5093341;28;20032;-59
2022/04/05 04:32:41;;;;;;;6.00;4.13;;;6.60;99.90;;;;;;5093622;28;20028;-59
2022/04/05 04:35:08;;;;;;;6.95;4.15;;;6.60;99.90;;;;;;5092535;28;20095;-59
2022/04/05 04:37:34;;;;;;;4.32;3.45;;;6.70;99.90;;;;;;5093725;28;20475;-59
2022/04/05 04:40:00;;;;;;;6.40;3.63;;;6.70;99.90;;;;;;5092480;28;20028;-59
2022/04/05 04:42:25;;;;;;;7.93;3.38;;;6.80;99.90;;;;;;5094031;28;20028;-59
2022/04/05 04:44:51;;;;;;;5.15;3.50;;;6.80;99.90;;;;;;5093773;28;20036;-59
2022/04/05 04:47:17;;;;;;;10.65;4.85;;;6.80;99.90;;;;;;5092568;28;20064;-59
2022/04/05 04:49:43;;;;;;;6.03;3.63;;;6.90;99.90;;;;;;5093258;28;20476;-59
2022/04/05 04:52:09;;;;;;;9.32;3.70;;;6.90;99.90;;;;;;5093731;28;20046;-59
2022/04/05 04:54:35;;;;;;;4.63;3.70;;;6.90;99.90;;;;;;5096760;28;20388;-59
2022/04/05 04:57:01;;;;;;;5.82;4.20;;;6.90;99.90;;;;;;5097207;28;20036;-60
2022/04/05 04:59:27;;;;;;;4.53;3.20;;;6.90;99.90;;;;;;5096852;28;20095;-59
2022/04/05 05:01:52;;;;;;;6.72;3.95;;;6.90;99.90;;;;;;5095775;28;20020;-59
2022/04/05 05:04:18;;;;;;;5.10;3.50;;;6.90;99.90;;;;;;5097077;28;20041;-59
2022/04/05 05:06:44;;;;;;;3.85;3.22;;;7.00;99.90;;;;;;5096713;28;20028;-59
2022/04/05 05:09:09;;;;;;;4.70;3.60;;;6.90;99.90;;;;;;5096940;28;20106;-58
2022/04/05 05:11:35;;;;;;;5.25;3.65;;;7.00;99.90;;;;;;5095895;28;20070;-59
2022/04/05 05:14:01;;;;;;;5.35;3.97;;;7.00;99.90;;;;;;5097221;28;20023;-59
2022/04/05 05:16:26;;;;;;;5.35;3.50;;;7.00;99.90;;;;;;5096933;28;20020;-59
2022/04/05 05:18:52;;;;;;;6.25;4.25;;;7.00;99.90;;;;;;5095645;28;20055;-59
2022/04/05 05:21:19;;;;;;;7.43;4.35;;;7.00;99.90;;;;;;5096441;28;20452;-59
2022/04/05 05:23:45;;;;;;;9.93;4.30;;;7.00;99.90;;;;;;5096580;28;20132;-59
2022/04/05 05:29:33;;;;;;;7.78;4.25;;;7.00;99.90;;;;;;5096602;28;20070;-58
2022/04/05 05:31:58;;;;;;;8.02;4.80;;;7.10;99.90;;;;;;5096654;28;20024;-58
2022/04/05 05:34:24;;;;;;;7.03;3.75;;;7.10;99.90;;;;;;5096406;28;20463;-58
2022/04/05 05:36:50;;;;;;;6.15;4.32;;;7.10;99.90;;;;;;5096401;28;20090;-59
2022/04/05 05:42:57;;;;;;;8.82;3.92;;;7.20;99.90;;;;;;5096562;28;20551;-58
2022/04/05 05:45:24;;;;;;;5.82;3.80;;;7.20;99.90;;;;;;5096316;28;20032;-59
2022/04/05 05:47:50;;;;;;;8.90;4.60;;;7.20;99.90;;;;;;5096212;28;20048;-58
2022/04/05 05:50:16;;;;;;;7.22;4.43;;;7.30;99.90;;;;;;5094854;28;20028;-58
2022/04/05 05:52:43;;;;;;;7.53;4.40;;;7.30;99.90;;;;;;5096054;28;20028;-59
2022/04/05 05:55:11;;;;;;;5.95;4.40;;;7.40;99.90;;;;;;5094850;28;20085;-59
2022/04/05 05:57:37;;;;;;;7.47;4.57;;;7.40;99.90;;;;;;5095327;28;20421;-59
2022/04/05 06:03:24;;;;;;;7.65;3.80;;;7.30;99.90;;;;;;5095818;28;20388;-59
2022/04/05 06:05:50;;;;;;;6.93;4.97;;;7.20;99.90;;;;;;5095844;28;20055;-59
2022/04/05 06:11:38;;;;;;;7.95;4.95;;;6.90;99.90;;;;;;5095892;28;20372;-59
2022/04/05 06:17:25;;;;;;;5.30;4.00;;;6.80;99.90;;;;;;5095483;28;20073;-59
2022/04/05 06:19:51;;;;;;;7.60;4.55;;;6.80;99.90;;;;;;5095698;28;20024;-59
2022/04/05 06:22:17;;;;;;;6.97;5.00;;;6.80;99.90;;;;;;5094306;28;20156;-59
2022/04/05 06:24:42;;;;;;;8.20;5.35;;;6.90;99.90;;;;;;5095377;28;20036;-59
2022/04/05 06:27:08;;;;;;;7.97;4.82;;;6.90;99.90;;;;;;5094855;28;20124;-59
2022/04/05 06:29:34;;;;;;;5.43;4.20;;;7.00;99.90;;;;;;5094061;28;20050;-58
2022/04/05 06:32:01;;;;;;;7.53;4.03;;;7.10;99.90;;;;;;5094587;28;20115;-58
2022/04/05 06:34:27;;;;;;;8.40;4.63;;;7.10;99.90;;;;;;5095067;28;20456;-58
2022/04/05 06:36:53;;;;;;;11.77;4.55;;;7.20;99.90;;;;;;5095277;28;20059;-58
2022/04/05 06:39:19;;;;;;;5.82;4.45;;;7.10;99.90;;;;;;5095317;28;20020;-58
2022/04/05 06:41:45;;;;;;;5.25;3.92;;;7.10;99.90;;;;;;5095415;28;20472;-59
2022/04/05 06:44:11;;;;;;;5.88;4.18;;;7.10;99.90;;;;;;5094164;28;20437;-59
2022/04/05 06:46:36;;;;;;;7.57;4.13;;;7.10;99.90;;;;;;5095386;28;20032;-59
2022/04/05 06:49:03;;;;;;;5.65;3.95;;;7.10;99.90;;;;;;5095020;28;20021;-59
2022/04/05 06:51:29;;;;;;;4.82;3.78;;;7.20;99.90;;;;;;5095177;28;20028;-59
2022/04/05 06:53:56;;;;;;;6.93;4.13;;;7.20;99.90;;;;;;5094968;28;20039;-61
2022/04/05 06:56:25;;;;;;;5.57;3.75;;;7.30;99.90;;;;;;5093761;28;20032;-59
2022/04/05 06:58:51;;;;;;;7.43;4.35;;;7.40;99.90;;;;;;5093226;28;20024;-59
2022/04/05 07:01:17;;;;;;;5.47;3.95;;;7.40;99.90;;;;;;5094752;28;20519;-58
2022/04/05 07:03:42;;;;;;;7.78;4.10;;;7.40;99.90;;;;;;5094659;28;20119;-59
2022/04/05 07:06:08;;;;;;;7.10;4.50;;;7.40;99.90;;;;;;5094687;28;20468;-59
2022/04/05 07:08:34;;;;;;;6.20;4.70;;;7.40;99.90;;;;;;5094648;28;20055;-59
2022/04/05 07:10:59;;;;;;;8.88;4.50;;;7.40;99.90;;;;;;5094624;28;20035;-59
2022/04/05 07:13:25;;;;;;;7.75;4.13;;;7.50;99.90;;;;;;5094570;28;20028;-59
2022/04/05 07:15:51;;;;;;;8.48;4.35;;;7.50;99.90;;;;;;5094115;28;20028;-59
2022/04/05 07:18:17;;;;;;;6.18;4.13;;;7.50;99.90;;;;;;5092861;28;20048;-59
2022/04/05 07:20:43;;;;;;;6.15;4.07;;;7.50;99.90;;;;;;5094180;28;20035;-59
2022/04/05 07:23:09;;;;;;;6.40;3.80;;;7.50;99.90;;;;;;5094385;28;20027;-59
2022/04/05 07:25:35;;;;;;;4.65;3.80;;;7.40;99.90;;;;;;5093118;28;20065;-59
2022/04/05 07:28:02;;;;;;;4.38;3.50;;;7.30;99.90;;;;;;5094531;28;20111;-59
2022/04/05 07:30:28;;;;;;;5.25;4.18;;;7.20;99.90;;;;;;5094024;28;20039;-59
2022/04/05 07:32:54;;;;;;;8.82;4.38;;;7.00;99.90;;;;;;5093060;28;20028;-59
2022/04/05 07:35:20;;;;;;;4.78;3.78;;;6.90;99.90;;;;;;5093285;28;20460;-59
2022/04/05 07:37:47;;;;;;;5.95;3.97;;;6.90;99.90;;;;;;5094173;28;20021;-60
2022/04/05 07:43:35;;;;;;;6.10;3.72;;;6.80;99.90;;;;;;5094046;28;20392;-60
2022/04/05 07:46:01;;;;;;;11.05;4.82;;;6.60;99.90;;;;;;5093377;28;20036;-60
2022/04/05 07:48:28;;;;;;;8.60;4.57;;;6.50;99.90;;;;;;5094150;28;20024;-60
2022/04/05 07:50:54;;;;;;;6.53;4.95;;;6.40;99.90;;;;;;5092590;28;20088;-60
2022/04/05 07:53:20;;;;;;;7.18;4.90;;;6.30;99.90;;;;;;5094029;28;20076;-60
2022/04/05 07:55:45;;;;;;;9.02;5.35;;;6.30;99.90;;;;;;5093115;28;20118;-60
2022/04/05 08:01:33;;;;;;;9.65;5.15;;;6.30;99.90;;;;;;5093953;28;20548;-60
2022/04/05 08:03:58;;;;;;;7.80;4.88;;;6.40;99.90;;;;;;5092527;28;20032;-60
2022/04/05 08:06:27;;;;;;;7.88;5.00;;;6.40;99.90;;;;;;5093842;28;20376;-60
2022/04/05 08:08:52;;;;;;;7.25;4.88;;;6.50;99.90;;;;;;5093848;28;20020;-60
2022/04/05 08:11:18;;;;;;;8.05;4.75;;;6.60;99.90;;;;;;5094097;28;20077;-60
2022/04/05 08:13:44;;;;;;;7.25;4.85;;;6.70;99.90;;;;;;5093825;28;20030;-60
2022/04/05 08:16:10;;;;;;;6.75;4.05;;;6.80;99.90;;;;;;5092657;28;20115;-60
2022/04/05 08:18:35;;;;;;;5.00;3.90;;;6.90;99.90;;;;;;5093741;28;20056;-60
2022/04/05 08:21:01;;;;;;;5.45;4.20;;;6.90;99.90;;;;;;5092428;28;20032;-60
2022/04/05 08:23:27;;;;;;;5.95;3.75;;;7.00;99.90;;;;;;5094279;28;20440;-60
2022/04/05 08:25:52;;;;;;;5.18;3.35;;;7.10;99.90;;;;;;5093735;28;20028;-60
2022/04/05 08:28:19;;;;;;;4.38;3.20;;;7.20;99.90;;;;;;5094941;28;20374;-60
2022/04/05 08:30:45;;;;;;;5.38;3.53;;;7.20;99.90;;;;;;5097965;28;20020;-60
2022/04/05 08:33:10;;;;;;;3.85;3.17;;;7.30;99.90;;;;;;5098009;28;20035;-61
2022/04/05 08:35:37;;;;;;;5.00;3.47;;;7.50;99.90;;;;;;5097643;28;20056;-60
2022/04/05 08:38:03;;;;;;;3.15;2.63;;;7.50;99.90;;;;;;5097584;28;20023;-60
2022/04/05 08:40:28;;;;;;;3.88;3.47;;;7.50;99.90;;;;;;5097316;28;20103;-60
2022/04/05 08:42:56;;;;;;;3.70;3.08;;;7.60;99.90;;;;;;5113480;28;20036;-61
2022/04/05 08:45:23;;;;;;;4.30;2.65;;;7.60;99.90;;;;;;5097470;28;20031;-60
2022/04/05 08:47:54;;;;;;;3.97;3.10;;;7.70;99.90;;;;;;5097456;28;20020;-60
2022/04/05 08:50:27;;;;;;;3.53;2.80;;;7.80;99.90;;;;;;5097381;28;20028;-60
2022/04/05 08:52:59;;;;;;;2.63;2.15;;;7.80;99.90;;;;;;5097576;28;20079;-60
2022/04/05 08:55:25;;;;;;;3.40;2.53;;;7.90;99.90;;;;;;5097247;28;20479;-60
2022/04/05 08:57:50;;;;;;;3.30;2.80;;;7.80;99.90;;;;;;5097631;28;20036;-60
2022/04/05 09:00:19;;;;;;;2.65;2.40;;;7.80;99.90;;;;;;5097433;28;20028;-60
2022/04/05 09:02:52;;;;;;;3.05;2.75;;;8.00;99.90;;;;;;5097388;28;20028;-60
2022/04/05 09:05:34;;;;;;;3.58;2.13;;;8.20;99.90;;;;;;5096813;28;20388;-59
2022/04/05 09:08:19;;;;;;;3.53;2.65;;;8.30;99.90;;;;;;5097112;28;20090;-59
2022/04/05 09:10:47;;;;;;;3.08;2.38;;;8.50;99.90;;;;;;5096967;28;20052;-59
2022/04/05 09:13:19;;;;;;;3.92;2.00;;;8.60;99.90;;;;;;5095678;28;20422;-59
2022/04/05 09:15:48;;;;;;;2.42;2.22;;;8.70;99.90;;;;;;5096905;28;20024;-59
2022/04/05 09:18:13;;;;;;;4.25;2.53;;;8.80;99.90;;;;;;5095163;28;20415;-59
2022/04/05 09:20:47;;;;;;;4.05;2.60;;;9.00;99.90;;;;;;5096757;28;20024;-59
2022/04/05 09:23:28;;;;;;;4.18;2.30;;;9.10;99.90;;;;;;5096285;28;20466;-59
2022/04/05 09:26:05;;;;;;;3.15;2.30;;;9.10;99.90;;;;;;5095324;28;20081;-60
2022/04/05 09:28:39;;;;;;;2.08;1.80;;;9.20;99.90;;;;;;5096482;28;20028;-59
2022/04/05 09:31:20;;;;;;;2.10;1.52;;;9.70;99.90;;;;;;5096928;28;20020;-60
2022/04/05 09:34:04;;;;;;;2.67;1.98;;;9.80;99.90;;;;;;5096549;28;20028;-60
2022/04/05 09:36:50;;;;;;;3.40;1.83;;;10.10;99.90;;;;;;5095153;28;20082;-59
2022/04/05 09:39:16;;;;;;;2.83;2.00;;;10.10;99.90;;;;;;5095178;28;20036;-59
2022/04/05 09:45:04;;;;;;;2.20;1.95;;;10.40;99.90;;;;;;5096228;28;20039;-60
2022/04/05 09:47:29;;;;;;;2.33;1.67;;;10.30;99.90;;;;;;5096759;28;20035;-60
2022/04/05 09:50:02;;;;;;;1.73;1.63;;;10.20;99.90;;;;;;5095178;28;20020;-59
2022/04/05 09:52:33;;;;;;;2.28;1.75;;;10.00;99.90;;;;;;5096195;28;20460;-60
2022/04/05 09:55:15;;;;;;;4.22;2.42;;;9.90;99.90;;;;;;5096253;28;20032;-59
2022/04/05 09:57:42;;;;;;;3.53;1.30;;;9.80;99.90;;;;;;5094816;28;20515;-59
2022/04/05 10:00:16;;;;;;;1.40;1.30;;;9.50;99.90;;;;;;5096197;28;20032;-59
2022/04/05 10:03:03;;;;;;;1.45;1.35;;;9.30;99.90;;;;;;5096267;28;20103;-59
2022/04/05 10:05:29;;;;;;;5.85;1.95;;;9.20;99.90;;;;;;5094755;28;20036;-59
2022/04/05 10:07:56;;;;;;;2.05;1.55;;;9.20;99.90;;;;;;5095890;28;20031;-59
2022/04/05 10:10:23;;;;;;;1.80;1.65;;;9.20;99.90;;;;;;5095529;28;20031;-59
2022/04/05 10:12:49;;;;;;;3.97;1.60;;;9.30;99.90;;;;;;5095808;28;20027;-59
2022/04/05 10:15:15;;;;;;;1.70;1.60;;;9.40;99.90;;;;;;5095735;28;20032;-59
2022/04/05 10:17:45;;;;;;;1.58;1.48;;;9.40;99.90;;;;;;5095767;28;20487;-59
2022/04/05 10:20:12;;;;;;;1.17;1.13;;;9.50;99.90;;;;;;5095908;28;20055;-59
2022/04/05 10:22:40;;;;;;;3.85;1.40;;;9.60;99.90;;;;;;5094282;28;20035;-59
2022/04/05 10:25:07;;;;;;;1.27;1.10;;;9.80;99.90;;;;;;5095490;28;20063;-60
2022/04/05 10:27:33;;;;;;;1.45;1.10;;;9.80;99.90;;;;;;5094433;28;20468;-59
2022/04/05 10:30:24;;;;;;;2.95;1.20;;;9.70;99.90;;;;;;5095174;28;20028;-59
2022/04/05 10:32:56;;;;;;;1.90;1.30;;;9.70;99.90;;;;;;5095748;28;20059;-59
2022/04/05 10:35:24;;;;;;;2.53;1.20;;;9.50;99.90;;;;;;5095180;28;20028;-59
2022/04/05 10:37:53;;;;;;;1.38;1.27;;;9.40;99.90;;;;;;5095225;28;20028;-59
2022/04/05 10:40:20;;;;;;;2.00;1.33;;;9.40;99.90;;;;;;5095350;28;20029;-59
2022/04/05 10:42:54;;;;;;;1.98;1.30;;;9.50;99.90;;;;;;5094015;28;20367;-59
2022/04/05 10:45:21;;;;;;;1.75;1.23;;;9.50;99.90;;;;;;5096048;28;20024;-59
2022/04/05 10:48:00;;;;;;;1.80;1.52;;;9.40;99.90;;;;;;5094974;28;20526;-59
2022/04/05 10:50:26;;;;;;;1.30;1.20;;;9.40;99.90;;;;;;5094342;28;20024;-59
2022/04/05 10:53:21;;;;;;;2.15;1.58;;;9.30;99.90;;;;;;5094698;28;20468;-59
2022/04/05 10:56:10;;;;;;;1.60;1.50;;;9.30;99.90;;;;;;5095307;28;20052;-59
2022/04/05 10:58:48;;;;;;;1.70;1.50;;;9.50;99.90;;;;;;5094899;28;20483;-59
2022/04/05 11:01:19;;;;;;;2.22;2.03;;;9.50;99.90;;;;;;5095230;28;20059;-60
2022/04/05 11:07:11;;;;;;;2.50;2.20;;;9.40;99.90;;;;;;5094861;28;20027;-59
2022/04/05 11:09:40;;;;;;;3.25;2.05;;;9.60;99.90;;;;;;5093374;28;20024;-59
2022/04/05 11:12:15;;;;;;;1.88;1.77;;;9.60;99.90;;;;;;5093466;28;20024;-59
2022/04/05 11:14:49;;;;;;;1.98;1.75;;;9.40;99.90;;;;;;5095142;28;20064;-59
2022/04/05 11:17:16;;;;;;;2.13;1.83;;;9.40;99.90;;;;;;5093072;28;20080;-59
2022/04/05 11:19:44;;;;;;;2.25;1.95;;;9.30;99.90;;;;;;5094785;28;20024;-59
2022/04/05 11:22:22;;;;;;;2.20;2.00;;;9.20;99.90;;;;;;5094463;28;20043;-60
2022/04/05 11:24:53;;;;;;;2.00;1.80;;;9.10;99.90;;;;;;5093569;28;20090;-59
2022/04/05 11:27:33;;;;;;;2.53;2.13;;;8.90;99.90;;;;;;5094295;28;20043;-59
2022/04/05 11:30:27;;;;;;;2.05;1.83;;;8.70;99.90;;;;;;5094344;28;20020;-59
2022/04/05 11:33:15;;;;;;;3.08;2.20;;;8.70;99.90;;;;;;5093509;28;20051;-60
2022/04/05 11:35:45;;;;;;;6.72;2.45;;;8.60;99.90;;;;;;5094190;28;20085;-60
2022/04/05 11:38:17;;;;;;;3.35;2.75;;;8.80;99.90;;;;;;5092928;28;20034;-60
2022/04/05 11:40:43;;;;;;;5.25;3.17;;;8.70;99.90;;;;;;5094492;28;20034;-60
2022/04/05 11:43:32;;;;;;;2.60;2.20;;;8.80;99.90;;;;;;5093828;28;20516;-60
2022/04/05 11:46:12;;;;;;;2.88;2.53;;;8.90;99.90;;;;;;5093471;28;20533;-60
2022/04/05 11:48:52;;;;;;;2.72;2.03;;;8.90;99.90;;;;;;5092860;28;20028;-60
2022/04/05 11:51:20;;;;;;;2.10;2.00;;;8.90;99.90;;;;;;5094350;28;20020;-60
2022/04/05 11:53:47;;;;;;;2.72;2.25;;;8.90;99.90;;;;;;5094242;28;20032;-60
2022/04/05 11:56:23;;;;;;;3.25;2.30;;;9.10;99.90;;;;;;5092682;28;20036;-60
2022/04/05 11:58:52;;;;;;;1.90;1.80;;;9.20;99.90;;;;;;5094135;28;20038;-59
2022/04/05 12:01:24;;;;;;;2.37;2.17;;;9.30;99.90;;;;;;5093927;28;20503;-60
2022/04/05 12:03:57;;;;;;;2.78;2.08;;;9.40;99.90;;;;;;5092460;28;20289;-60
2022/04/05 12:06:27;;;;;;;4.60;2.28;;;9.40;99.90;;;;;;5093846;28;20455;-60
2022/04/05 12:08:55;;;;;;;2.67;1.70;;;9.30;99.90;;;;;;5092542;28;20025;-60
2022/04/05 12:11:24;;;;;;;2.20;2.00;;;9.10;99.90;;;;;;5093862;28;20468;-60
2022/04/05 12:14:01;;;;;;;2.63;2.17;;;8.90;99.90;;;;;;5094088;28;20076;-59
2022/04/05 12:16:29;;;;;;;5.28;2.10;;;9.00;99.90;;;;;;5093801;28;20059;-60
2022/04/05 12:18:56;;;;;;;4.68;3.28;;;8.90;99.90;;;;;;5093465;28;20048;-60
2022/04/05 12:21:24;;;;;;;2.10;1.90;;;9.10;99.90;;;;;;5092471;28;20406;-60
2022/04/05 12:23:51;;;;;;;2.33;1.85;;;9.40;99.90;;;;;;5093660;28;20483;-60
2022/04/05 12:26:24;;;;;;;2.53;2.05;;;9.40;99.90;;;;;;5093664;28;20040;-60
2022/04/05 12:28:55;;;;;;;2.10;1.90;;;9.50;99.90;;;;;;5092421;28;20027;-60
2022/04/05 12:31:23;;;;;;;2.95;1.70;;;9.50;99.90;;;;;;5093674;28;20027;-59
2022/04/05 12:34:13;;;;;;;4.53;2.13;;;9.50;99.90;;;;;;5092446;28;20546;-59
2022/04/05 12:36:53;;;;;;;1.95;1.67;;;9.40;99.90;;;;;;5088683;28;20043;-60
2022/04/05 12:39:43;;;;;;;2.55;2.20;;;9.50;99.90;;;;;;5093653;28;20047;-60
2022/04/05 12:42:09;;;;;;;2.42;2.00;;;9.50;99.90;;;;;;5088134;28;20042;-60
2022/04/05 12:44:44;;;;;;;2.97;1.63;;;9.30;99.90;;;;;;5093544;28;20165;-62
2022/04/05 12:47:14;;;;;;;2.00;1.90;;;9.10;99.90;;;;;;5094003;28;20085;-60
2022/04/05 12:49:51;;;;;;;2.20;2.00;;;9.00;99.90;;;;;;5094091;28;20027;-60
2022/04/05 12:52:21;;;;;;;4.20;2.10;;;8.90;99.90;;;;;;5093533;28;20078;-60
2022/04/05 12:54:53;;;;;;;3.47;2.67;;;8.90;99.90;;;;;;5093503;28;20050;-60
2022/04/05 12:57:25;;;;;;;6.80;2.70;;;9.00;99.90;;;;;;5092102;28;20028;-60
2022/04/05 12:59:53;;;;;;;3.30;2.65;;;9.10;99.90;;;;;;5092023;28;20031;-61
2022/04/05 13:02:25;;;;;;;6.60;2.90;;;9.20;99.90;;;;;;5092252;28;20020;-60
2022/04/05 13:06:19;;;;;;;2.80;2.30;;;9.20;99.90;;;;;;5092362;28;20035;-60
2022/04/05 13:07:54;;;;;;;4.10;2.70;;;9.30;99.90;;;;;;5092716;28;20039;-61
2022/04/05 13:10:20;;;;;;;4.45;2.70;;;9.30;99.90;;;;;;5091799;28;20032;-61
2022/04/05 13:12:45;;;;;;;2.67;2.45;;;9.30;99.90;;;;;;5090767;28;20035;-61
2022/04/05 13:18:48;;;;;;;3.97;2.58;;;9.40;99.90;;;;;;5092316;28;20490;-61
2022/04/05 13:21:18;;;;;;;3.05;2.72;;;9.50;99.90;;;;;;5096031;28;20040;-62
2022/04/05 13:24:05;;;;;;;3.40;2.60;;;9.70;99.90;;;;;;5096884;28;20035;-62
2022/04/05 13:26:31;;;;;;;3.30;2.42;;;9.70;99.90;;;;;;5095357;28;20028;-62
2022/04/05 13:29:30;;;;;;;3.15;2.40;;;9.60;99.90;;;;;;5096596;28;20074;-62
2022/04/05 13:32:04;;;;;;;3.97;2.63;;;9.70;99.90;;;;;;5094418;28;20066;-62
2022/04/05 13:34:44;;;;;;;3.90;3.10;;;10.00;99.90;;;;;;5096695;28;20043;-61
2022/04/05 13:37:14;;;;;;;3.42;2.40;;;10.00;99.90;;;;;;5096551;28;20020;-62